sensor_id;sensor_type;location;lat;lon;timestamp;pressure;altitude;pressure_sealevel;temperature;humidity
35519;BME280;21627;48.216;16.482;2024-01-15T00:01:02;98443.13;;;-2.99;100.00
35519;BME280;21627;48.216;16.482;2024-01-15T00:03:30;98447.25;;;-3.01;100.00
35519;BME280;21627;48.216;16.482;2024-01-15T00:05:57;98446.41;;;-3.01;100.00
35519;BME280;21627;48.216;16.482;2024-01-15T00:08:25;98430.25;;;-3.05;100.00
35519;BME280;21627;48.216;16.482;2024-01-15T00:10:52;98453.41;;;-2.93;100.00
35519;BME280;21627;48.216;16.482;2024-01-15T00:13:19;98442.44;;;-2.93;100.00
35519;BME280;21627;48.216;16.482;2024-01-15T00:15:46;98448.56;;;-2.87;100.00
35519;BME280;21627;48.216;16.482;2024-01-15T00:18:13;98436.44;;;-2.97;100.00
35519;BME280;21627;48.216;16.482;2024-01-15T00:20:40;98435.53;;;-2.99;100.00
35519;BME280;21627;48.216;16.482;2024-01-15T00:23:07;98442.41;;;-2.95;100.00
35519;BME280;21627;48.216;16.482;2024-01-15T00:25:34;98426.97;;;-3.02;100.00
35519;BME280;21627;48.216;16.482;2024-01-15T00:28:01;98434.56;;;-3.02;100.00
35519;BME280;21627;48.216;16.482;2024-01-15T00:30:29;98426.13;;;-3.03;100.00
35519;BME280;21627;48.216;16.482;2024-01-15T00:32:56;98419.19;;;-3.09;100.00
35519;BME280;21627;48.216;16.482;2024-01-15T00:35:23;98415.91;;;-3.06;100.00
35519;BME280;21627;48.216;16.482;2024-01-15T00:37:50;98421.13;;;-3.01;100.00
35519;BME280;21627;48.216;16.482;2024-01-15T00:40:17;98427.88;;;-3.00;100.00
35519;BME280;21627;48.216;16.482;2024-01-15T00:42:44;98433.94;;;-2.95;100.00
35519;BME280;21627;48.216;16.482;2024-01-15T00:45:11;98419.66;;;-2.95;100.00
35519;BME280;21627;48.216;16.482;2024-01-15T00:47:38;98433.41;;;-2.87;100.00
35519;BME280;21627;48.216;16.482;2024-01-15T00:50:06;98415.72;;;-2.85;100.00
35519;BME280;21627;48.216;16.482;2024-01-15T00:52:33;98422.47;;;-2.86;100.00
35519;BME280;21627;48.216;16.482;2024-01-15T00:55:00;98420.84;;;-2.84;100.00
35519;BME280;21627;48.216;16.482;2024-01-15T00:57:27;98411.44;;;-2.88;100.00
35519;BME280;21627;48.216;16.482;2024-01-15T00:59:55;98414.84;;;-2.87;100.00
35519;BME280;21627;48.216;16.482;2024-01-15T01:02:22;98414.16;;;-2.81;100.00
35519;BME280;21627;48.216;16.482;2024-01-15T01:04:49;98414.09;;;-2.83;100.00
35519;BME280;21627;48.216;16.482;2024-01-15T01:07:16;98389.72;;;-2.81;100.00
35519;BME280;21627;48.216;16.482;2024-01-15T01:09:43;98407.50;;;-2.79;100.00
35519;BME280;21627;48.216;16.482;2024-01-15T01:12:11;98395.63;;;-2.82;100.00
35519;BME280;21627;48.216;16.482;2024-01-15T01:14:38;98396.63;;;-2.77;100.00
35519;BME280;21627;48.216;16.482;2024-01-15T01:17:05;98404.06;;;-2.80;100.00
35519;BME280;21627;48.216;16.482;2024-01-15T01:19:32;98398.03;;;-2.85;100.00
35519;BME280;21627;48.216;16.482;2024-01-15T01:22:00;98395.47;;;-2.87;100.00
35519;BME280;21627;48.216;16.482;2024-01-15T01:24:27;98392.84;;;-2.90;100.00
35519;BME280;21627;48.216;16.482;2024-01-15T01:26:54;98392.84;;;-2.90;100.00
35519;BME280;21627;48.216;16.482;2024-01-15T01:29:21;98386.81;;;-2.93;100.00
35519;BME280;21627;48.216;16.482;2024-01-15T01:31:50;98386.91;;;-2.90;100.00
35519;BME280;21627;48.216;16.482;2024-01-15T01:34:17;98398.84;;;-2.86;100.00
35519;BME280;21627;48.216;16.482;2024-01-15T01:36:44;98390.31;;;-2.90;100.00
35519;BME280;21627;48.216;16.482;2024-01-15T01:39:12;98386.03;;;-2.92;100.00
35519;BME280;21627;48.216;16.482;2024-01-15T01:41:39;98386.81;;;-2.93;100.00
35519;BME280;21627;48.216;16.482;2024-01-15T01:44:07;98388.41;;;-2.97;100.00
35519;BME280;21627;48.216;16.482;2024-01-15T01:46:36;98373.38;;;-2.92;100.00
35519;BME280;21627;48.216;16.482;2024-01-15T01:49:09;98374.22;;;-2.92;100.00
35519;BME280;21627;48.216;16.482;2024-01-15T01:51:37;98357.53;;;-2.87;100.00
35519;BME280;21627;48.216;16.482;2024-01-15T01:54:07;98348.31;;;-2.85;100.00
35519;BME280;21627;48.216;16.482;2024-01-15T01:56:36;98356.75;;;-2.84;100.00
35519;BME280;21627;48.216;16.482;2024-01-15T01:59:04;98343.03;;;-2.92;100.00
35519;BME280;21627;48.216;16.482;2024-01-15T02:01:31;98346.28;;;-2.96;100.00
35519;BME280;21627;48.216;16.482;2024-01-15T02:03:59;98341.22;;;-2.96;100.00
35519;BME280;21627;48.216;16.482;2024-01-15T02:06:27;98334.53;;;-2.94;100.00
35519;BME280;21627;48.216;16.482;2024-01-15T02:08:55;98339.59;;;-2.94;100.00
35519;BME280;21627;48.216;16.482;2024-01-15T02:11:22;98326.13;;;-2.93;100.00
35519;BME280;21627;48.216;16.482;2024-01-15T02:13:49;98329.03;;;-2.81;100.00
35519;BME280;21627;48.216;16.482;2024-01-15T02:16:17;98315.66;;;-2.77;100.00
35519;BME280;21627;48.216;16.482;2024-01-15T02:18:46;98321.34;;;-2.84;100.00
35519;BME280;21627;48.216;16.482;2024-01-15T02:21:13;98315.38;;;-2.86;100.00
35519;BME280;21627;48.216;16.482;2024-01-15T02:23:40;98314.34;;;-2.93;100.00
35519;BME280;21627;48.216;16.482;2024-01-15T02:26:08;98325.50;;;-2.86;100.00
35519;BME280;21627;48.216;16.482;2024-01-15T02:28:35;98322.91;;;-2.88;100.00
35519;BME280;21627;48.216;16.482;2024-01-15T02:31:03;98316.28;;;-2.84;100.00
35519;BME280;21627;48.216;16.482;2024-01-15T02:33:30;98317.84;;;-2.89;100.00
35519;BME280;21627;48.216;16.482;2024-01-15T02:35:58;98306.72;;;-2.94;100.00
35519;BME280;21627;48.216;16.482;2024-01-15T02:38:25;98301.03;;;-2.87;100.00
35519;BME280;21627;48.216;16.482;2024-01-15T02:40:52;98306.97;;;-2.85;100.00
35519;BME280;21627;48.216;16.482;2024-01-15T02:43:19;98309.69;;;-2.79;100.00
35519;BME280;21627;48.216;16.482;2024-01-15T02:45:46;98304.03;;;-2.70;100.00
35519;BME280;21627;48.216;16.482;2024-01-15T02:48:14;98292.59;;;-2.57;100.00
35519;BME280;21627;48.216;16.482;2024-01-15T02:50:41;98293.78;;;-2.45;100.00
35519;BME280;21627;48.216;16.482;2024-01-15T02:53:08;98302.03;;;-2.22;100.00
35519;BME280;21627;48.216;16.482;2024-01-15T02:55:36;98293.03;;;-2.10;100.00
35519;BME280;21627;48.216;16.482;2024-01-15T02:58:04;98299.03;;;-1.75;100.00
35519;BME280;21627;48.216;16.482;2024-01-15T03:00:31;98301.78;;;-1.66;100.00
35519;BME280;21627;48.216;16.482;2024-01-15T03:02:58;98302.19;;;-1.49;100.00
35519;BME280;21627;48.216;16.482;2024-01-15T03:05:25;98300.78;;;-1.38;100.00
35519;BME280;21627;48.216;16.482;2024-01-15T03:07:52;98304.22;;;-1.36;100.00
35519;BME280;21627;48.216;16.482;2024-01-15T03:10:19;98307.19;;;-1.17;100.00
35519;BME280;21627;48.216;16.482;2024-01-15T03:12:46;98309.34;;;-0.96;100.00
35519;BME280;21627;48.216;16.482;2024-01-15T03:15:14;98320.22;;;-0.62;100.00
35519;BME280;21627;48.216;16.482;2024-01-15T03:17:44;98310.88;;;-0.65;100.00
35519;BME280;21627;48.216;16.482;2024-01-15T03:20:11;98320.41;;;-0.53;100.00
35519;BME280;21627;48.216;16.482;2024-01-15T03:22:39;98322.25;;;-0.46;100.00
35519;BME280;21627;48.216;16.482;2024-01-15T03:25:07;98342.72;;;-0.38;100.00
35519;BME280;21627;48.216;16.482;2024-01-15T03:27:34;98325.63;;;-0.47;100.00
35519;BME280;21627;48.216;16.482;2024-01-15T03:30:02;98345.31;;;-0.35;100.00
35519;BME280;21627;48.216;16.482;2024-01-15T03:32:29;98334.44;;;-0.30;100.00
35519;BME280;21627;48.216;16.482;2024-01-15T03:34:57;98349.75;;;-0.27;100.00
35519;BME280;21627;48.216;16.482;2024-01-15T03:37:24;98356.94;;;-0.06;100.00
35519;BME280;21627;48.216;16.482;2024-01-15T03:39:51;98359.47;;;-0.06;100.00
35519;BME280;21627;48.216;16.482;2024-01-15T03:42:18;98359.53;;;-0.03;100.00
35519;BME280;21627;48.216;16.482;2024-01-15T03:44:46;98358.84;;;0.06;100.00
35519;BME280;21627;48.216;16.482;2024-01-15T03:47:13;98348.66;;;0.05;100.00
35519;BME280;21627;48.216;16.482;2024-01-15T03:49:40;98357.22;;;0.08;100.00
35519;BME280;21627;48.216;16.482;2024-01-15T03:52:07;98361.63;;;0.20;100.00
35519;BME280;21627;48.216;16.482;2024-01-15T03:54:34;98346.53;;;0.26;100.00
35519;BME280;21627;48.216;16.482;2024-01-15T03:57:02;98351.53;;;0.21;100.00
35519;BME280;21627;48.216;16.482;2024-01-15T03:59:29;98354.06;;;0.21;99.69
35519;BME280;21627;48.216;16.482;2024-01-15T04:01:56;98344.75;;;0.22;99.97
35519;BME280;21627;48.216;16.482;2024-01-15T04:04:23;98342.09;;;0.17;99.85
35519;BME280;21627;48.216;16.482;2024-01-15T04:06:50;98337.78;;;0.12;100.00
35519;BME280;21627;48.216;16.482;2024-01-15T04:09:17;98332.59;;;0.06;100.00
35519;BME280;21627;48.216;16.482;2024-01-15T04:11:44;98320.69;;;0.03;100.00
35519;BME280;21627;48.216;16.482;2024-01-15T04:14:11;98313.25;;;0.14;99.41
35519;BME280;21627;48.216;16.482;2024-01-15T04:16:38;98302.78;;;-0.03;100.00
35519;BME280;21627;48.216;16.482;2024-01-15T04:19:05;98313.88;;;0.01;100.00
35519;BME280;21627;48.216;16.482;2024-01-15T04:21:33;98310.69;;;0.12;100.00
35519;BME280;21627;48.216;16.482;2024-01-15T04:24:00;98292.88;;;0.11;99.96
35519;BME280;21627;48.216;16.482;2024-01-15T04:26:27;98310.75;;;0.17;100.00
35519;BME280;21627;48.216;16.482;2024-01-15T04:28:54;98293.00;;;0.18;100.00
35519;BME280;21627;48.216;16.482;2024-01-15T04:31:25;98293.00;;;0.18;100.00
35519;BME280;21627;48.216;16.482;2024-01-15T04:33:54;98290.44;;;0.15;100.00
35519;BME280;21627;48.216;16.482;2024-01-15T04:36:21;98281.88;;;0.12;100.00
35519;BME280;21627;48.216;16.482;2024-01-15T04:38:49;98292.13;;;0.16;100.00
35519;BME280;21627;48.216;16.482;2024-01-15T04:41:16;98315.91;;;0.20;100.00
35519;BME280;21627;48.216;16.482;2024-01-15T04:43:44;98324.13;;;0.07;100.00
35519;BME280;21627;48.216;16.482;2024-01-15T04:46:11;98332.66;;;0.09;100.00
35519;BME280;21627;48.216;16.482;2024-01-15T04:48:38;98331.03;;;0.14;100.00
35519;BME280;21627;48.216;16.482;2024-01-15T04:51:08;98326.81;;;0.13;100.00
35519;BME280;21627;48.216;16.482;2024-01-15T04:53:36;98330.81;;;0.02;100.00
35519;BME280;21627;48.216;16.482;2024-01-15T04:56:03;98334.25;;;0.04;100.00
35519;BME280;21627;48.216;16.482;2024-01-15T04:58:30;98334.06;;;-0.07;100.00
35519;BME280;21627;48.216;16.482;2024-01-15T05:00:57;98329.78;;;-0.08;100.00
35519;BME280;21627;48.216;16.482;2024-01-15T05:03:25;98336.28;;;-0.23;100.00
35519;BME280;21627;48.216;16.482;2024-01-15T05:05:52;98326.84;;;-0.30;100.00
35519;BME280;21627;48.216;16.482;2024-01-15T05:08:19;98342.97;;;-0.28;100.00
35519;BME280;21627;48.216;16.482;2024-01-15T05:10:47;98319.91;;;-0.35;100.00
35519;BME280;21627;48.216;16.482;2024-01-15T05:13:14;98340.31;;;-0.32;100.00
35519;BME280;21627;48.216;16.482;2024-01-15T05:15:41;98328.34;;;-0.38;100.00
35519;BME280;21627;48.216;16.482;2024-01-15T05:18:09;98328.13;;;-0.49;100.00
35519;BME280;21627;48.216;16.482;2024-01-15T05:20:36;98343.50;;;-0.41;100.00
35519;BME280;21627;48.216;16.482;2024-01-15T05:23:04;98349.38;;;-0.44;100.00
35519;BME280;21627;48.216;16.482;2024-01-15T05:25:31;98354.31;;;-0.51;100.00
35519;BME280;21627;48.216;16.482;2024-01-15T05:27:58;98355.16;;;-0.51;100.00
35519;BME280;21627;48.216;16.482;2024-01-15T05:30:25;98352.53;;;-0.55;100.00
35519;BME280;21627;48.216;16.482;2024-01-15T05:32:52;98362.88;;;-0.46;100.00
35519;BME280;21627;48.216;16.482;2024-01-15T05:35:19;98357.56;;;-0.57;100.00
35519;BME280;21627;48.216;16.482;2024-01-15T05:37:47;98351.03;;;-0.46;100.00
35519;BME280;21627;48.216;16.482;2024-01-15T05:40:15;98346.56;;;-0.57;100.00
35519;BME280;21627;48.216;16.482;2024-01-15T05:42:42;98359.69;;;-0.37;100.00
35519;BME280;21627;48.216;16.482;2024-01-15T05:45:09;98367.09;;;-0.47;100.00
35519;BME280;21627;48.216;16.482;2024-01-15T05:47:37;98363.03;;;-0.38;100.00
35519;BME280;21627;48.216;16.482;2024-01-15T05:50:05;98367.16;;;-0.45;100.00
35519;BME280;21627;48.216;16.482;2024-01-15T05:52:32;98365.47;;;-0.45;100.00
35519;BME280;21627;48.216;16.482;2024-01-15T05:54:59;98364.59;;;-0.45;100.00
35519;BME280;21627;48.216;16.482;2024-01-15T05:57:26;98357.75;;;-0.49;100.00
35519;BME280;21627;48.216;16.482;2024-01-15T05:59:54;98368.78;;;-0.47;100.00
35519;BME280;21627;48.216;16.482;2024-01-15T06:02:21;98362.88;;;-0.48;100.00
35519;BME280;21627;48.216;16.482;2024-01-15T06:04:48;98372.28;;;-0.42;100.00
35519;BME280;21627;48.216;16.482;2024-01-15T06:07:15;98375.03;;;-0.33;99.73
35519;BME280;21627;48.216;16.482;2024-01-15T06:09:43;98377.53;;;-0.34;100.00
35519;BME280;21627;48.216;16.482;2024-01-15T06:12:10;98370.91;;;-0.28;99.68
35519;BME280;21627;48.216;16.482;2024-01-15T06:14:37;98371.72;;;-0.29;100.00
35519;BME280;21627;48.216;16.482;2024-01-15T06:17:04;98368.44;;;-0.23;100.00
35519;BME280;21627;48.216;16.482;2024-01-15T06:19:31;98363.13;;;0.09;100.00
35519;BME280;21627;48.216;16.482;2024-01-15T06:21:59;98355.25;;;0.40;100.00
35519;BME280;21627;48.216;16.482;2024-01-15T06:24:26;98367.47;;;0.14;99.72
35519;BME280;21627;48.216;16.482;2024-01-15T06:26:53;98349.44;;;0.01;100.00
35519;BME280;21627;48.216;16.482;2024-01-15T06:29:20;98350.25;;;-0.02;100.00
35519;BME280;21627;48.216;16.482;2024-01-15T06:31:48;98349.44;;;0.01;100.00
35519;BME280;21627;48.216;16.482;2024-01-15T06:34:15;98349.31;;;-0.06;100.00
35519;BME280;21627;48.216;16.482;2024-01-15T06:36:43;98356.97;;;-0.04;100.00
35519;BME280;21627;48.216;16.482;2024-01-15T06:39:11;98347.59;;;-0.07;100.00
35519;BME280;21627;48.216;16.482;2024-01-15T06:41:38;98361.91;;;-0.10;100.00
35519;BME280;21627;48.216;16.482;2024-01-15T06:44:10;98372.81;;;-0.16;100.00
35519;BME280;21627;48.216;16.482;2024-01-15T06:46:43;98379.63;;;-0.15;100.00
35519;BME280;21627;48.216;16.482;2024-01-15T06:49:11;98379.53;;;-0.19;100.00
35519;BME280;21627;48.216;16.482;2024-01-15T06:51:39;98379.63;;;-0.15;100.00
35519;BME280;21627;48.216;16.482;2024-01-15T06:54:06;98393.19;;;-0.14;100.00
35519;BME280;21627;48.216;16.482;2024-01-15T06:56:33;98405.66;;;-0.25;100.00
35519;BME280;21627;48.216;16.482;2024-01-15T06:59:00;98396.47;;;-0.20;100.00
35519;BME280;21627;48.216;16.482;2024-01-15T07:01:28;98407.41;;;-0.23;100.00
35519;BME280;21627;48.216;16.482;2024-01-15T07:03:55;98409.94;;;-0.23;100.00
35519;BME280;21627;48.216;16.482;2024-01-15T07:06:22;98416.78;;;-0.20;100.00
35519;BME280;21627;48.216;16.482;2024-01-15T07:08:49;98409.84;;;-0.27;100.00
35519;BME280;21627;48.216;16.482;2024-01-15T07:11:17;98420.03;;;-0.26;100.00
35519;BME280;21627;48.216;16.482;2024-01-15T07:13:44;98418.38;;;-0.25;100.00
35519;BME280;21627;48.216;16.482;2024-01-15T07:16:11;98413.19;;;-0.28;100.00
35519;BME280;21627;48.216;16.482;2024-01-15T07:18:38;98408.09;;;-0.30;100.00
35519;BME280;21627;48.216;16.482;2024-01-15T07:21:05;98414.94;;;-0.26;100.00
35519;BME280;21627;48.216;16.482;2024-01-15T07:23:33;98413.41;;;-0.19;100.00
35519;BME280;21627;48.216;16.482;2024-01-15T07:26:00;98406.03;;;-0.05;100.00
35519;BME280;21627;48.216;16.482;2024-01-15T07:28:29;98406.97;;;-0.02;100.00
35519;BME280;21627;48.216;16.482;2024-01-15T07:30:57;98401.06;;;-0.02;99.76
35519;BME280;21627;48.216;16.482;2024-01-15T07:33:25;98411.28;;;0.01;99.09
35519;BME280;21627;48.216;16.482;2024-01-15T07:35:53;98411.38;;;0.06;98.79
35519;BME280;21627;48.216;16.482;2024-01-15T07:38:20;98405.44;;;0.05;98.47
35519;BME280;21627;48.216;16.482;2024-01-15T07:40:47;98402.94;;;0.08;98.60
35519;BME280;21627;48.216;16.482;2024-01-15T07:43:16;98405.59;;;0.13;97.86
35519;BME280;21627;48.216;16.482;2024-01-15T07:45:43;98403.75;;;0.06;98.03
35519;BME280;21627;48.216;16.482;2024-01-15T07:48:12;98409.63;;;0.03;98.24
35519;BME280;21627;48.216;16.482;2024-01-15T07:50:39;98412.47;;;0.18;97.20
35519;BME280;21627;48.216;16.482;2024-01-15T07:53:06;98402.16;;;0.12;97.86
35519;BME280;21627;48.216;16.482;2024-01-15T07:55:33;98406.59;;;0.21;97.67
35519;BME280;21627;48.216;16.482;2024-01-15T07:58:00;98409.19;;;0.24;97.65
35519;BME280;21627;48.216;16.482;2024-01-15T08:00:41;98406.69;;;0.27;97.68
35519;BME280;21627;48.216;16.482;2024-01-15T08:03:09;98419.59;;;0.36;97.38
35519;BME280;21627;48.216;16.482;2024-01-15T08:05:36;98420.50;;;0.40;97.42
35519;BME280;21627;48.216;16.482;2024-01-15T08:08:04;98417.03;;;0.36;97.01
35519;BME280;21627;48.216;16.482;2024-01-15T08:10:31;98425.53;;;0.37;97.78
35519;BME280;21627;48.216;16.482;2024-01-15T08:12:58;98425.72;;;0.48;97.33
35519;BME280;21627;48.216;16.482;2024-01-15T08:15:25;98417.28;;;0.49;97.27
35519;BME280;21627;48.216;16.482;2024-01-15T08:17:57;98413.03;;;0.49;97.18
35519;BME280;21627;48.216;16.482;2024-01-15T08:20:25;98424.06;;;0.50;96.93
35519;BME280;21627;48.216;16.482;2024-01-15T08:22:53;98430.09;;;0.55;97.23
35519;BME280;21627;48.216;16.482;2024-01-15T08:25:20;98410.69;;;0.58;97.31
35519;BME280;21627;48.216;16.482;2024-01-15T08:27:47;98414.13;;;0.62;96.53
35519;BME280;21627;48.216;16.482;2024-01-15T08:30:15;98415.81;;;0.61;97.81
35519;BME280;21627;48.216;16.482;2024-01-15T08:32:42;98402.09;;;0.53;97.79
35519;BME280;21627;48.216;16.482;2024-01-15T08:35:10;98408.19;;;0.61;97.46
35519;BME280;21627;48.216;16.482;2024-01-15T08:37:38;98409.88;;;0.61;97.43
35519;BME280;21627;48.216;16.482;2024-01-15T08:40:06;98416.06;;;0.77;96.94
35519;BME280;21627;48.216;16.482;2024-01-15T08:42:35;98425.41;;;0.76;97.19
35519;BME280;21627;48.216;16.482;2024-01-15T08:45:02;98424.00;;;0.94;97.11
35519;BME280;21627;48.216;16.482;2024-01-15T08:47:29;98424.38;;;1.17;94.53
35519;BME280;21627;48.216;16.482;2024-01-15T08:49:56;98397.47;;;1.33;93.33
35519;BME280;21627;48.216;16.482;2024-01-15T08:52:24;98407.06;;;1.49;91.70
35519;BME280;21627;48.216;16.482;2024-01-15T08:54:51;98391.81;;;1.54;91.93
35519;BME280;21627;48.216;16.482;2024-01-15T08:57:18;98403.69;;;1.53;91.57
35519;BME280;21627;48.216;16.482;2024-01-15T08:59:45;98395.41;;;1.68;91.50
35519;BME280;21627;48.216;16.482;2024-01-15T09:02:12;98410.00;;;1.81;89.26
35519;BME280;21627;48.216;16.482;2024-01-15T09:04:40;98413.56;;;1.92;88.72
35519;BME280;21627;48.216;16.482;2024-01-15T09:07:08;98406.75;;;1.91;87.37
35519;BME280;21627;48.216;16.482;2024-01-15T09:09:35;98394.06;;;1.96;88.30
35519;BME280;21627;48.216;16.482;2024-01-15T09:12:06;98398.38;;;2.00;87.58
35519;BME280;21627;48.216;16.482;2024-01-15T09:14:33;98394.97;;;2.01;87.62
35519;BME280;21627;48.216;16.482;2024-01-15T09:17:04;98404.13;;;1.85;86.74
35519;BME280;21627;48.216;16.482;2024-01-15T09:19:32;98408.38;;;1.86;87.28
35519;BME280;21627;48.216;16.482;2024-01-15T09:21:59;98425.28;;;1.77;87.49
35519;BME280;21627;48.216;16.482;2024-01-15T09:24:27;98428.56;;;1.69;88.93
35519;BME280;21627;48.216;16.482;2024-01-15T09:26:55;98430.13;;;1.61;90.01
35519;BME280;21627;48.216;16.482;2024-01-15T09:29:23;98437.81;;;1.63;90.26
35519;BME280;21627;48.216;16.482;2024-01-15T09:31:51;98424.22;;;1.62;89.25
35519;BME280;21627;48.216;16.482;2024-01-15T09:34:19;98426.66;;;1.56;89.34
35519;BME280;21627;48.216;16.482;2024-01-15T09:36:46;98407.09;;;1.54;89.93
35519;BME280;21627;48.216;16.482;2024-01-15T09:39:16;98404.53;;;1.52;90.13
35519;BME280;21627;48.216;16.482;2024-01-15T09:41:43;98413.09;;;1.59;89.97
35519;BME280;21627;48.216;16.482;2024-01-15T09:44:12;98415.69;;;1.60;91.12
35519;BME280;21627;48.216;16.482;2024-01-15T09:46:39;98408.84;;;1.58;91.85
35519;BME280;21627;48.216;16.482;2024-01-15T09:49:08;98417.53;;;1.69;92.29
35519;BME280;21627;48.216;16.482;2024-01-15T09:51:35;98409.97;;;1.77;91.04
35519;BME280;21627;48.216;16.482;2024-01-15T09:54:03;98404.31;;;2.01;91.04
35519;BME280;21627;48.216;16.482;2024-01-15T09:56:31;98391.00;;;2.26;88.91
35519;BME280;21627;48.216;16.482;2024-01-15T09:58:58;98396.34;;;2.46;88.08
35519;BME280;21627;48.216;16.482;2024-01-15T10:01:28;98396.19;;;2.34;87.25
35519;BME280;21627;48.216;16.482;2024-01-15T10:03:56;98404.72;;;2.34;87.64
35519;BME280;21627;48.216;16.482;2024-01-15T10:06:23;98394.53;;;2.34;88.46
35519;BME280;21627;48.216;16.482;2024-01-15T10:08:51;98388.53;;;2.29;88.45
35519;BME280;21627;48.216;16.482;2024-01-15T10:11:18;98388.59;;;2.37;88.49
35519;BME280;21627;48.216;16.482;2024-01-15T10:13:47;98383.50;;;2.38;88.49
35519;BME280;21627;48.216;16.482;2024-01-15T10:16:16;98364.78;;;2.35;87.27
35519;BME280;21627;48.216;16.482;2024-01-15T10:18:44;98380.22;;;2.47;89.02
35519;BME280;21627;48.216;16.482;2024-01-15T10:21:11;98354.75;;;2.53;89.42
35519;BME280;21627;48.216;16.482;2024-01-15T10:23:38;98365.97;;;2.74;86.97
35519;BME280;21627;48.216;16.482;2024-01-15T10:26:05;98353.44;;;2.98;87.26
35519;BME280;21627;48.216;16.482;2024-01-15T10:28:33;98379.91;;;3.08;86.45
35519;BME280;21627;48.216;16.482;2024-01-15T10:31:00;98373.88;;;3.04;84.65
35519;BME280;21627;48.216;16.482;2024-01-15T10:33:28;98361.16;;;3.08;85.90
35519;BME280;21627;48.216;16.482;2024-01-15T10:35:57;98361.19;;;3.11;84.84
35519;BME280;21627;48.216;16.482;2024-01-15T10:38:25;98377.28;;;3.00;85.58
35519;BME280;21627;48.216;16.482;2024-01-15T10:40:56;98353.44;;;3.00;84.51
35519;BME280;21627;48.216;16.482;2024-01-15T10:43:23;98367.94;;;3.02;84.40
35519;BME280;21627;48.216;16.482;2024-01-15T10:45:55;98367.09;;;3.07;84.94
35519;BME280;21627;48.216;16.482;2024-01-15T10:48:22;98360.31;;;3.09;83.94
35519;BME280;21627;48.216;16.482;2024-01-15T10:50:50;98357.78;;;3.15;83.23
35519;BME280;21627;48.216;16.482;2024-01-15T10:53:17;98351.97;;;3.34;82.65
35519;BME280;21627;48.216;16.482;2024-01-15T10:55:46;98352.06;;;3.48;81.51
35519;BME280;21627;48.216;16.482;2024-01-15T10:58:16;98334.25;;;3.66;81.34
35519;BME280;21627;48.216;16.482;2024-01-15T11:00:44;98347.94;;;3.82;79.56
35519;BME280;21627;48.216;16.482;2024-01-15T11:03:12;98343.72;;;3.89;79.30
35519;BME280;21627;48.216;16.482;2024-01-15T11:05:42;98329.28;;;4.08;78.58
35519;BME280;21627;48.216;16.482;2024-01-15T11:08:10;98349.81;;;4.28;78.44
35519;BME280;21627;48.216;16.482;2024-01-15T11:10:44;98360.13;;;4.60;77.29
35519;BME280;21627;48.216;16.482;2024-01-15T11:16:02;98347.31;;;5.21;73.88
35519;BME280;21627;48.216;16.482;2024-01-15T11:18:37;98357.56;;;5.29;69.98
35519;BME280;21627;48.216;16.482;2024-01-15T11:24:01;98364.38;;;5.21;70.42
35519;BME280;21627;48.216;16.482;2024-01-15T11:32:09;98365.25;;;4.65;71.86
35519;BME280;21627;48.216;16.482;2024-01-15T11:34:55;98353.28;;;4.56;72.48
35519;BME280;21627;48.216;16.482;2024-01-15T11:43:00;98353.31;;;4.97;71.50
35519;BME280;21627;48.216;16.482;2024-01-15T11:45:31;98352.47;;;4.97;71.36
35519;BME280;21627;48.216;16.482;2024-01-15T11:48:13;98351.59;;;5.06;72.33
35519;BME280;21627;48.216;16.482;2024-01-15T11:50:47;98343.91;;;5.23;71.34
35519;BME280;21627;48.216;16.482;2024-01-15T11:53:40;98325.97;;;5.26;70.48
35519;BME280;21627;48.216;16.482;2024-01-15T11:56:17;98313.94;;;5.41;68.95
35519;BME280;21627;48.216;16.482;2024-01-15T11:58:44;98319.09;;;5.38;69.00
35519;BME280;21627;48.216;16.482;2024-01-15T12:01:11;98289.13;;;5.62;69.01
35519;BME280;21627;48.216;16.482;2024-01-15T12:03:39;98280.59;;;5.55;68.25
35519;BME280;21627;48.216;16.482;2024-01-15T12:06:07;98267.88;;;5.29;69.60
35519;BME280;21627;48.216;16.482;2024-01-15T12:08:34;98285.84;;;5.03;70.78
35519;BME280;21627;48.216;16.482;2024-01-15T12:11:07;98266.22;;;4.96;70.66
35519;BME280;21627;48.216;16.482;2024-01-15T12:13:37;98270.53;;;4.85;71.86
35519;BME280;21627;48.216;16.482;2024-01-15T12:16:05;98289.28;;;4.58;72.82
35519;BME280;21627;48.216;16.482;2024-01-15T12:18:32;98296.97;;;4.28;74.91
35519;BME280;21627;48.216;16.482;2024-01-15T12:21:00;98291.81;;;4.19;75.94
35519;BME280;21627;48.216;16.482;2024-01-15T12:23:27;98285.84;;;4.17;76.49
35519;BME280;21627;48.216;16.482;2024-01-15T12:25:54;98295.25;;;4.24;77.60
35519;BME280;21627;48.216;16.482;2024-01-15T12:28:22;98289.28;;;4.34;77.06
35519;BME280;21627;48.216;16.482;2024-01-15T12:30:49;98290.94;;;4.16;77.88
35519;BME280;21627;48.216;16.482;2024-01-15T12:33:18;98303.78;;;4.42;76.56
35519;BME280;21627;48.216;16.482;2024-01-15T12:35:47;98291.88;;;4.59;75.49
35519;BME280;21627;48.216;16.482;2024-01-15T12:38:14;98296.97;;;4.85;73.97
35519;BME280;21627;48.216;16.482;2024-01-15T12:40:44;98295.25;;;4.86;72.15
35519;BME280;21627;48.216;16.482;2024-01-15T12:43:13;98286.69;;;5.16;70.71
35519;BME280;21627;48.216;16.482;2024-01-15T12:45:40;98269.66;;;4.99;68.97
35519;BME280;21627;48.216;16.482;2024-01-15T12:48:08;98277.34;;;4.86;69.82
35519;BME280;21627;48.216;16.482;2024-01-15T12:50:36;98294.41;;;4.68;71.98
35519;BME280;21627;48.216;16.482;2024-01-15T12:53:03;98290.16;;;4.41;72.58
35519;BME280;21627;48.216;16.482;2024-01-15T12:55:30;98277.31;;;4.12;75.29
35519;BME280;21627;48.216;16.482;2024-01-15T12:57:57;98272.19;;;4.12;76.88
35519;BME280;21627;48.216;16.482;2024-01-15T13:00:25;98274.72;;;4.04;77.28
35519;BME280;21627;48.216;16.482;2024-01-15T13:02:53;98275.53;;;3.86;77.92
35519;BME280;21627;48.216;16.482;2024-01-15T13:05:22;98282.31;;;3.72;78.71
35519;BME280;21627;48.216;16.482;2024-01-15T13:07:51;98281.44;;;3.61;79.20
35519;BME280;21627;48.216;16.482;2024-01-15T13:10:18;98270.25;;;3.45;79.32